QFA55 PANC-PAYA
Flight info
| Callsign | QFA55 |
|---|---|
| Flight time | 1h 1m |
| Altitude | 35000 |
| Route | JOH J501 YAK |
| Aircraft | B738/M-SDE2E3FGHIRWXY/LB1 |
Departure
| Time | 2026-04-23 09:25 |
|---|---|
| Airport | Ted Stevens Anchorage International Airport (PANC) |
Arrival
| Time | 2026-04-23 10:27 |
|---|---|
| Airport | Yakutat Airport (PAYA) |
| Time | Latitude | Longitude | Altitude | Speed | Heading |
|---|---|---|---|---|---|
| 2026-04-23 09:05 | 61.17574 | -149.98494 | 161 ft | 0 kts | 104° |
| 2026-04-23 09:15 | 61.17575 | -149.98497 | 160 ft | 2 kts | 106° |
| 2026-04-23 09:15 | 61.17581 | -149.98544 | 160 ft | 3 kts | 105° |
| 2026-04-23 09:16 | 61.17588 | -149.98593 | 160 ft | 3 kts | 105° |
| 2026-04-23 09:16 | 61.17594 | -149.98641 | 160 ft | 3 kts | 105° |
| 2026-04-23 09:16 | 61.17604 | -149.98683 | 160 ft | 3 kts | 137° |
| 2026-04-23 09:16 | 61.17625 | -149.98705 | 160 ft | 3 kts | 160° |
| 2026-04-23 09:17 | 61.17648 | -149.98722 | 160 ft | 3 kts | 160° |
| 2026-04-23 09:17 | 61.17669 | -149.98738 | 160 ft | 1 kts | 160° |
| 2026-04-23 09:19 | 61.17657 | -149.98730 | 160 ft | 8 kts | 160° |
| 2026-04-23 09:19 | 61.17553 | -149.98651 | 161 ft | 23 kts | 160° |
| 2026-04-23 09:19 | 61.17491 | -149.98605 | 160 ft | 0 kts | 161° |
| 2026-04-23 09:20 | 61.17480 | -149.98597 | 160 ft | 8 kts | 161° |
| 2026-04-23 09:20 | 61.17384 | -149.98608 | 161 ft | 17 kts | 211° |
| 2026-04-23 09:21 | 61.17295 | -149.98728 | 161 ft | 17 kts | 209° |
| 2026-04-23 09:21 | 61.17185 | -149.98734 | 161 ft | 16 kts | 158° |
| 2026-04-23 09:21 | 61.17121 | -149.98555 | 161 ft | 17 kts | 96° |
| 2026-04-23 09:21 | 61.17116 | -149.98301 | 161 ft | 18 kts | 90° |
| 2026-04-23 09:22 | 61.17116 | -149.98023 | 161 ft | 20 kts | 91° |
| 2026-04-23 09:22 | 61.17115 | -149.97726 | 161 ft | 21 kts | 90° |
| 2026-04-23 09:22 | 61.17117 | -149.97411 | 161 ft | 22 kts | 88° |
| 2026-04-23 09:22 | 61.17123 | -149.97079 | 161 ft | 23 kts | 88° |
| 2026-04-23 09:23 | 61.17092 | -149.96826 | 161 ft | 17 kts | 149° |
| 2026-04-23 09:23 | 61.16971 | -149.96799 | 161 ft | 18 kts | 188° |
| 2026-04-23 09:23 | 61.16904 | -149.96903 | 161 ft | 20 kts | 246° |
| 2026-04-23 09:23 | 61.16845 | -149.97194 | 161 ft | 23 kts | 248° |
| 2026-04-23 09:24 | 61.16791 | -149.97527 | 161 ft | 27 kts | 265° |
| 2026-04-23 09:24 | 61.16787 | -149.98230 | 161 ft | 53 kts | 269° |
| 2026-04-23 09:24 | 61.16786 | -149.98919 | 161 ft | 92 kts | 270° |
| 2026-04-23 09:24 | 61.16786 | -150.00630 | 161 ft | 144 kts | 269° |
| 2026-04-23 09:25 | 61.16785 | -150.03014 | 226 ft | 179 kts | 267° |
| 2026-04-23 09:25 | 61.16795 | -150.05543 | 873 ft | 171 kts | 262° |
| 2026-04-23 09:25 | 61.16723 | -150.08040 | 1394 ft | 180 kts | 258° |
| 2026-04-23 09:25 | 61.16605 | -150.10704 | 1873 ft | 189 kts | 261° |
| 2026-04-23 09:26 | 61.16505 | -150.13465 | 2481 ft | 198 kts | 264° |
| 2026-04-23 09:26 | 61.16447 | -150.16461 | 2894 ft | 219 kts | 266° |
| 2026-04-23 09:26 | 61.16408 | -150.19776 | 3333 ft | 239 kts | 266° |
| 2026-04-23 09:26 | 61.16362 | -150.23328 | 3906 ft | 254 kts | 263° |
| 2026-04-23 09:27 | 61.15855 | -150.26832 | 4549 ft | 257 kts | 234° |
| 2026-04-23 09:27 | 61.14566 | -150.29295 | 5307 ft | 253 kts | 201° |
| 2026-04-23 09:27 | 61.12871 | -150.29873 | 6136 ft | 248 kts | 171° |
| 2026-04-23 09:27 | 61.11311 | -150.28483 | 6991 ft | 248 kts | 141° |
| 2026-04-23 09:28 | 61.10320 | -150.25507 | 7856 ft | 253 kts | 116° |
| 2026-04-23 09:28 | 61.09724 | -150.22017 | 8563 ft | 261 kts | 112° |
| 2026-04-23 09:28 | 61.09201 | -150.18391 | 9270 ft | 266 kts | 111° |
| 2026-04-23 09:28 | 61.08675 | -150.14688 | 9945 ft | 271 kts | 112° |
| 2026-04-23 09:29 | 61.08104 | -150.10880 | 10366 ft | 286 kts | 114° |
| 2026-04-23 09:29 | 61.07472 | -150.06855 | 10681 ft | 303 kts | 114° |
| 2026-04-23 09:29 | 61.06807 | -150.02660 | 10992 ft | 319 kts | 114° |
| 2026-04-23 09:29 | 61.06104 | -149.98174 | 11510 ft | 329 kts | 114° |
| 2026-04-23 09:30 | 61.05398 | -149.93625 | 12108 ft | 336 kts | 115° |
| 2026-04-23 09:30 | 61.04681 | -149.89008 | 12770 ft | 340 kts | 115° |
| 2026-04-23 09:30 | 61.03949 | -149.84327 | 13442 ft | 345 kts | 115° |
| 2026-04-23 09:30 | 61.03203 | -149.79596 | 14123 ft | 348 kts | 116° |
| 2026-04-23 09:31 | 61.02446 | -149.74813 | 14811 ft | 353 kts | 116° |
| 2026-04-23 09:31 | 61.01678 | -149.69973 | 15479 ft | 357 kts | 116° |
| 2026-04-23 09:31 | 61.00904 | -149.65095 | 16152 ft | 361 kts | 116° |
| 2026-04-23 09:31 | 61.00116 | -149.60150 | 16817 ft | 365 kts | 116° |
| 2026-04-23 09:32 | 60.99320 | -149.55157 | 17494 ft | 369 kts | 117° |
| 2026-04-23 09:32 | 60.98512 | -149.50116 | 18135 ft | 373 kts | 117° |
| 2026-04-23 09:32 | 60.97693 | -149.45021 | 18774 ft | 377 kts | 117° |
| 2026-04-23 09:32 | 60.96863 | -149.39863 | 19404 ft | 381 kts | 117° |
| 2026-04-23 09:33 | 60.96023 | -149.34662 | 20022 ft | 385 kts | 117° |
| 2026-04-23 09:33 | 60.95173 | -149.29415 | 20628 ft | 388 kts | 117° |
| 2026-04-23 09:33 | 60.94312 | -149.24114 | 21217 ft | 392 kts | 118° |
| 2026-04-23 09:33 | 60.93442 | -149.18773 | 21796 ft | 396 kts | 118° |
| 2026-04-23 09:34 | 60.92562 | -149.13395 | 22359 ft | 399 kts | 118° |
| 2026-04-23 09:34 | 60.91673 | -149.07968 | 22920 ft | 402 kts | 118° |
| 2026-04-23 09:34 | 60.90777 | -149.02517 | 23465 ft | 404 kts | 118° |
| 2026-04-23 09:34 | 60.89870 | -148.97017 | 23974 ft | 408 kts | 118° |
| 2026-04-23 09:35 | 60.88953 | -148.91478 | 24475 ft | 410 kts | 118° |
| 2026-04-23 09:35 | 60.88029 | -148.85912 | 24965 ft | 413 kts | 119° |
| 2026-04-23 09:35 | 60.87094 | -148.80298 | 25413 ft | 417 kts | 118° |
| 2026-04-23 09:35 | 60.86152 | -148.74654 | 25868 ft | 420 kts | 118° |
| 2026-04-23 09:36 | 60.85200 | -148.68964 | 26289 ft | 423 kts | 118° |
| 2026-04-23 09:36 | 60.84239 | -148.63245 | 26713 ft | 426 kts | 118° |
| 2026-04-23 09:36 | 60.83270 | -148.57492 | 27126 ft | 428 kts | 118° |
| 2026-04-23 09:36 | 60.82290 | -148.51701 | 27503 ft | 431 kts | 118° |
| 2026-04-23 09:37 | 60.81301 | -148.45870 | 27861 ft | 434 kts | 118° |
| 2026-04-23 09:37 | 60.80305 | -148.40017 | 28224 ft | 437 kts | 118° |
| 2026-04-23 09:37 | 60.79301 | -148.34128 | 28565 ft | 440 kts | 118° |
| 2026-04-23 09:37 | 60.78285 | -148.28197 | 28894 ft | 442 kts | 117° |
| 2026-04-23 09:38 | 60.77263 | -148.22247 | 29203 ft | 445 kts | 118° |
| 2026-04-23 09:38 | 60.76231 | -148.16259 | 29522 ft | 447 kts | 117° |
| 2026-04-23 09:38 | 60.75193 | -148.10253 | 29771 ft | 451 kts | 117° |
| 2026-04-23 09:39 | 60.73058 | -147.97996 | 30039 ft | 461 kts | 117° |
| 2026-04-23 09:39 | 60.71979 | -147.91799 | 30269 ft | 464 kts | 117° |
| 2026-04-23 09:39 | 60.70893 | -147.85578 | 30526 ft | 465 kts | 117° |
| 2026-04-23 09:39 | 60.69804 | -147.79372 | 30813 ft | 465 kts | 117° |
| 2026-04-23 09:40 | 60.68710 | -147.73168 | 31109 ft | 464 kts | 117° |
| 2026-04-23 09:40 | 60.67612 | -147.66969 | 31405 ft | 464 kts | 117° |
| 2026-04-23 09:40 | 60.66513 | -147.60784 | 31688 ft | 463 kts | 117° |
| 2026-04-23 09:40 | 60.65416 | -147.54625 | 31981 ft | 462 kts | 117° |
| 2026-04-23 09:41 | 60.64316 | -147.48464 | 32248 ft | 462 kts | 117° |
| 2026-04-23 09:41 | 60.63214 | -147.42317 | 32484 ft | 462 kts | 117° |
| 2026-04-23 09:41 | 60.62110 | -147.36183 | 32737 ft | 461 kts | 117° |
| 2026-04-23 09:41 | 60.61003 | -147.30045 | 32996 ft | 461 kts | 117° |
| 2026-04-23 09:42 | 60.59896 | -147.23928 | 33250 ft | 460 kts | 117° |
| 2026-04-23 09:42 | 60.58786 | -147.17816 | 33465 ft | 460 kts | 117° |
| 2026-04-23 09:42 | 60.57674 | -147.11714 | 33704 ft | 459 kts | 117° |
| 2026-04-23 09:42 | 60.56562 | -147.05629 | 33926 ft | 459 kts | 117° |
| 2026-04-23 09:43 | 60.55449 | -146.99561 | 34156 ft | 458 kts | 117° |
| 2026-04-23 09:43 | 60.54333 | -146.93493 | 34349 ft | 458 kts | 117° |
| 2026-04-23 09:43 | 60.53216 | -146.87439 | 34549 ft | 458 kts | 117° |
| 2026-04-23 09:43 | 60.52093 | -146.81369 | 34733 ft | 458 kts | 117° |
| 2026-04-23 09:44 | 60.50969 | -146.75320 | 34913 ft | 458 kts | 117° |
| 2026-04-23 09:44 | 60.49841 | -146.69277 | 35093 ft | 458 kts | 117° |
| 2026-04-23 09:44 | 60.48711 | -146.63230 | 35260 ft | 458 kts | 117° |
| 2026-04-23 09:45 | 60.47431 | -146.54006 | 35366 ft | 469 kts | 109° |
| 2026-04-23 09:47 | 60.46620 | -146.46800 | 35368 ft | 470 kts | 108° |
| 2026-04-23 09:47 | 60.45398 | -146.35548 | 35371 ft | 470 kts | 108° |
| 2026-04-23 09:48 | 60.43963 | -146.22692 | 35380 ft | 466 kts | 109° |
| 2026-04-23 09:48 | 60.42505 | -146.09970 | 35398 ft | 463 kts | 109° |
| 2026-04-23 09:49 | 60.41055 | -145.97271 | 35405 ft | 463 kts | 108° |
| 2026-04-23 09:49 | 60.39591 | -145.84570 | 35402 ft | 464 kts | 108° |
| 2026-04-23 09:50 | 60.38098 | -145.71781 | 35400 ft | 465 kts | 109° |
| 2026-04-23 09:50 | 60.36605 | -145.59078 | 35399 ft | 465 kts | 109° |
| 2026-04-23 09:51 | 60.35097 | -145.46372 | 35398 ft | 465 kts | 109° |
| 2026-04-23 09:51 | 60.33574 | -145.33685 | 35397 ft | 465 kts | 109° |
| 2026-04-23 09:52 | 60.32042 | -145.20979 | 35397 ft | 466 kts | 109° |
| 2026-04-23 09:52 | 60.30496 | -145.08278 | 35395 ft | 467 kts | 109° |
| 2026-04-23 09:53 | 60.28934 | -144.95587 | 35394 ft | 467 kts | 109° |
| 2026-04-23 09:53 | 60.27358 | -144.82882 | 35392 ft | 467 kts | 109° |
| 2026-04-23 09:54 | 60.25766 | -144.70181 | 35391 ft | 468 kts | 108° |
| 2026-04-23 09:54 | 60.24167 | -144.57474 | 35390 ft | 469 kts | 108° |
| 2026-04-23 09:55 | 60.22549 | -144.44768 | 35389 ft | 469 kts | 109° |
| 2026-04-23 09:55 | 60.20920 | -144.32086 | 35388 ft | 468 kts | 109° |
| 2026-04-23 09:56 | 60.19280 | -144.19411 | 35387 ft | 468 kts | 109° |
| 2026-04-23 09:56 | 60.17628 | -144.06753 | 35386 ft | 468 kts | 109° |
| 2026-04-23 09:57 | 60.15963 | -143.94105 | 35386 ft | 468 kts | 109° |
| 2026-04-23 09:57 | 60.14559 | -143.83526 | 35385 ft | 468 kts | 109° |
| 2026-04-23 09:58 | 60.12874 | -143.70910 | 35385 ft | 468 kts | 109° |
| 2026-04-23 09:58 | 60.11174 | -143.58295 | 35386 ft | 468 kts | 109° |
| 2026-04-23 09:59 | 60.09462 | -143.45686 | 35385 ft | 469 kts | 109° |
| 2026-04-23 09:59 | 60.07738 | -143.33091 | 35386 ft | 469 kts | 109° |
| 2026-04-23 10:00 | 60.05996 | -143.20469 | 35387 ft | 469 kts | 109° |
| 2026-04-23 10:00 | 60.04246 | -143.07884 | 35389 ft | 470 kts | 109° |
| 2026-04-23 10:01 | 60.02481 | -142.95301 | 35342 ft | 471 kts | 109° |
| 2026-04-23 10:01 | 60.01592 | -142.88990 | 34741 ft | 469 kts | 109° |
| 2026-04-23 10:01 | 60.00709 | -142.82746 | 34195 ft | 465 kts | 109° |
| 2026-04-23 10:01 | 59.99831 | -142.76559 | 33673 ft | 460 kts | 109° |
| 2026-04-23 10:02 | 59.98958 | -142.70435 | 33159 ft | 456 kts | 109° |
| 2026-04-23 10:02 | 59.98088 | -142.64368 | 32649 ft | 452 kts | 108° |
| 2026-04-23 10:02 | 59.97226 | -142.58376 | 32146 ft | 448 kts | 108° |
| 2026-04-23 10:02 | 59.96367 | -142.52422 | 31645 ft | 444 kts | 108° |
| 2026-04-23 10:03 | 59.95512 | -142.46520 | 31150 ft | 441 kts | 108° |
| 2026-04-23 10:03 | 59.94663 | -142.40670 | 30658 ft | 437 kts | 108° |
| 2026-04-23 10:03 | 59.93816 | -142.34868 | 30170 ft | 434 kts | 107° |
| 2026-04-23 10:03 | 59.92973 | -142.29107 | 29686 ft | 431 kts | 107° |
| 2026-04-23 10:04 | 59.92134 | -142.23390 | 29205 ft | 428 kts | 107° |
| 2026-04-23 10:04 | 59.91296 | -142.17708 | 28732 ft | 425 kts | 108° |
| 2026-04-23 10:04 | 59.90465 | -142.12083 | 28254 ft | 422 kts | 107° |
| 2026-04-23 10:04 | 59.89635 | -142.06489 | 27784 ft | 420 kts | 108° |
| 2026-04-23 10:05 | 59.88809 | -142.00940 | 27317 ft | 417 kts | 108° |
| 2026-04-23 10:05 | 59.87984 | -141.95412 | 26852 ft | 414 kts | 108° |
| 2026-04-23 10:05 | 59.87162 | -141.89927 | 26384 ft | 412 kts | 108° |
| 2026-04-23 10:05 | 59.86344 | -141.84486 | 25903 ft | 410 kts | 108° |
| 2026-04-23 10:06 | 59.85527 | -141.79069 | 25441 ft | 408 kts | 108° |
| 2026-04-23 10:06 | 59.84713 | -141.73684 | 24987 ft | 405 kts | 108° |
| 2026-04-23 10:06 | 59.83901 | -141.68333 | 24534 ft | 402 kts | 108° |
| 2026-04-23 10:06 | 59.83094 | -141.63028 | 24086 ft | 400 kts | 108° |
| 2026-04-23 10:07 | 59.82288 | -141.57756 | 23642 ft | 397 kts | 108° |
| 2026-04-23 10:07 | 59.81486 | -141.52516 | 23201 ft | 395 kts | 108° |
| 2026-04-23 10:07 | 59.80686 | -141.47312 | 22761 ft | 392 kts | 108° |
| 2026-04-23 10:07 | 59.79891 | -141.42152 | 22326 ft | 389 kts | 108° |
| 2026-04-23 10:08 | 59.79100 | -141.37037 | 21894 ft | 386 kts | 108° |
| 2026-04-23 10:08 | 59.78313 | -141.31957 | 21468 ft | 383 kts | 108° |
| 2026-04-23 10:08 | 59.77532 | -141.26934 | 21040 ft | 379 kts | 108° |
| 2026-04-23 10:09 | 59.75985 | -141.17031 | 20202 ft | 372 kts | 108° |
| 2026-04-23 10:09 | 59.75221 | -141.12162 | 19794 ft | 368 kts | 108° |
| 2026-04-23 10:09 | 59.74464 | -141.07342 | 19383 ft | 364 kts | 109° |
| 2026-04-23 10:09 | 59.73714 | -141.02587 | 18980 ft | 359 kts | 109° |
| 2026-04-23 10:10 | 59.72971 | -140.97889 | 18584 ft | 355 kts | 109° |
| 2026-04-23 10:10 | 59.72234 | -140.93243 | 18187 ft | 350 kts | 109° |
| 2026-04-23 10:10 | 59.71508 | -140.88676 | 17800 ft | 346 kts | 109° |
| 2026-04-23 10:10 | 59.70788 | -140.84158 | 17417 ft | 342 kts | 109° |
| 2026-04-23 10:11 | 59.70064 | -140.79631 | 17035 ft | 348 kts | 109° |
| 2026-04-23 10:11 | 59.69330 | -140.75055 | 16646 ft | 349 kts | 108° |
| 2026-04-23 10:11 | 59.68592 | -140.70464 | 16166 ft | 352 kts | 108° |
| 2026-04-23 10:11 | 59.67848 | -140.65838 | 15559 ft | 354 kts | 108° |
| 2026-04-23 10:12 | 59.67099 | -140.61202 | 15039 ft | 352 kts | 108° |
| 2026-04-23 10:12 | 59.66358 | -140.56621 | 14605 ft | 347 kts | 108° |
| 2026-04-23 10:12 | 59.65626 | -140.52113 | 14205 ft | 341 kts | 108° |
| 2026-04-23 10:12 | 59.64907 | -140.47693 | 13822 ft | 335 kts | 108° |
| 2026-04-23 10:13 | 59.64198 | -140.43346 | 13449 ft | 329 kts | 108° |
| 2026-04-23 10:13 | 59.63499 | -140.39077 | 13086 ft | 325 kts | 108° |
| 2026-04-23 10:13 | 59.62794 | -140.34780 | 12721 ft | 332 kts | 108° |
| 2026-04-23 10:13 | 59.62077 | -140.30427 | 12350 ft | 334 kts | 108° |
| 2026-04-23 10:14 | 59.61365 | -140.26113 | 11976 ft | 327 kts | 108° |
| 2026-04-23 10:14 | 59.60668 | -140.21882 | 11613 ft | 320 kts | 108° |
| 2026-04-23 10:14 | 59.59793 | -140.17910 | 11278 ft | 313 kts | 123° |
| 2026-04-23 10:14 | 59.58449 | -140.14511 | 10951 ft | 317 kts | 134° |
| 2026-04-23 10:15 | 59.56941 | -140.11301 | 10565 ft | 318 kts | 135° |
| 2026-04-23 10:15 | 59.55418 | -140.08145 | 10215 ft | 310 kts | 136° |
| 2026-04-23 10:15 | 59.53963 | -140.05158 | 10095 ft | 294 kts | 136° |
| 2026-04-23 10:15 | 59.52564 | -140.02279 | 9962 ft | 289 kts | 136° |
| 2026-04-23 10:16 | 59.51175 | -139.99411 | 9634 ft | 289 kts | 136° |
| 2026-04-23 10:16 | 59.49805 | -139.96577 | 9320 ft | 283 kts | 135° |
| 2026-04-23 10:16 | 59.48464 | -139.93804 | 9015 ft | 277 kts | 136° |
| 2026-04-23 10:16 | 59.47138 | -139.91067 | 8714 ft | 275 kts | 136° |
| 2026-04-23 10:17 | 59.45823 | -139.88361 | 8415 ft | 273 kts | 135° |
| 2026-04-23 10:17 | 59.44517 | -139.85679 | 8119 ft | 270 kts | 135° |
| 2026-04-23 10:17 | 59.43219 | -139.83014 | 7825 ft | 268 kts | 135° |
| 2026-04-23 10:17 | 59.41943 | -139.80394 | 7658 ft | 259 kts | 135° |
| 2026-04-23 10:18 | 59.40733 | -139.77911 | 7574 ft | 244 kts | 135° |
| 2026-04-23 10:18 | 59.39574 | -139.75538 | 7331 ft | 238 kts | 136° |
| 2026-04-23 10:18 | 59.38434 | -139.73208 | 7024 ft | 235 kts | 135° |
| 2026-04-23 10:18 | 59.37304 | -139.70903 | 6736 ft | 232 kts | 135° |
| 2026-04-23 10:19 | 59.36190 | -139.68631 | 6364 ft | 230 kts | 135° |
| 2026-04-23 10:19 | 59.35082 | -139.66372 | 5983 ft | 229 kts | 135° |
| 2026-04-23 10:19 | 59.33982 | -139.64137 | 5606 ft | 227 kts | 135° |
| 2026-04-23 10:19 | 59.32889 | -139.61915 | 5233 ft | 226 kts | 135° |
| 2026-04-23 10:20 | 59.31804 | -139.59710 | 4856 ft | 224 kts | 135° |
| 2026-04-23 10:20 | 59.30727 | -139.57521 | 4483 ft | 222 kts | 135° |
| 2026-04-23 10:20 | 59.29678 | -139.55304 | 4095 ft | 222 kts | 126° |
| 2026-04-23 10:20 | 59.29262 | -139.52487 | 3671 ft | 220 kts | 83° |
| 2026-04-23 10:21 | 59.29910 | -139.49867 | 3240 ft | 216 kts | 44° |
| 2026-04-23 10:21 | 59.31051 | -139.48009 | 2894 ft | 213 kts | 35° |
| 2026-04-23 10:21 | 59.32227 | -139.46256 | 2781 ft | 211 kts | 38° |
| 2026-04-23 10:21 | 59.33315 | -139.44386 | 2766 ft | 205 kts | 42° |
| 2026-04-23 10:22 | 59.34333 | -139.42427 | 2736 ft | 199 kts | 44° |
| 2026-04-23 10:22 | 59.35290 | -139.40578 | 2698 ft | 192 kts | 35° |
| 2026-04-23 10:22 | 59.36493 | -139.39662 | 2644 ft | 182 kts | 0° |
| 2026-04-23 10:22 | 59.37686 | -139.40276 | 2575 ft | 178 kts | 325° |
| 2026-04-23 10:23 | 59.38608 | -139.41877 | 2513 ft | 176 kts | 315° |
| 2026-04-23 10:23 | 59.39473 | -139.43572 | 2446 ft | 176 kts | 314° |
| 2026-04-23 10:23 | 59.40321 | -139.45253 | 2373 ft | 169 kts | 315° |
| 2026-04-23 10:23 | 59.41139 | -139.46863 | 2226 ft | 166 kts | 315° |
| 2026-04-23 10:24 | 59.41962 | -139.48474 | 2060 ft | 168 kts | 315° |
| 2026-04-23 10:24 | 59.42789 | -139.50089 | 1892 ft | 167 kts | 315° |
| 2026-04-23 10:24 | 59.43616 | -139.51702 | 1715 ft | 168 kts | 315° |
| 2026-04-23 10:24 | 59.44445 | -139.53322 | 1518 ft | 168 kts | 315° |
| 2026-04-23 10:25 | 59.45267 | -139.54935 | 1294 ft | 164 kts | 315° |
| 2026-04-23 10:25 | 59.46042 | -139.56463 | 1108 ft | 155 kts | 316° |
| 2026-04-23 10:25 | 59.46805 | -139.57969 | 852 ft | 156 kts | 316° |
| 2026-04-23 10:25 | 59.47574 | -139.59476 | 627 ft | 156 kts | 315° |
| 2026-04-23 10:26 | 59.48338 | -139.60994 | 389 ft | 156 kts | 316° |
| 2026-04-23 10:26 | 59.49102 | -139.62467 | 193 ft | 152 kts | 317° |
| 2026-04-23 10:26 | 59.49836 | -139.63904 | 44 ft | 144 kts | 317° |
| 2026-04-23 10:26 | 59.50403 | -139.65005 | 42 ft | 81 kts | 317° |
| 2026-04-23 10:27 | 59.50686 | -139.65556 | 42 ft | 46 kts | 315° |
| 2026-04-23 10:27 | 59.50871 | -139.65916 | 42 ft | 30 kts | 315° |
| 2026-04-23 10:27 | 59.50977 | -139.66127 | 41 ft | 12 kts | 311° |
| 2026-04-23 10:27 | 59.50965 | -139.66264 | 41 ft | 12 kts | 226° |
| 2026-04-23 10:28 | 59.50918 | -139.66370 | 41 ft | 9 kts | 245° |
| 2026-04-23 10:28 | 59.50916 | -139.66465 | 41 ft | 4 kts | 280° |
| 2026-04-23 10:28 | 59.50919 | -139.66499 | 41 ft | 0 kts | 280° |
| 2026-04-23 10:30 | 59.50921 | -139.66516 | 41 ft | 7 kts | 283° |
| 2026-04-23 10:31 | 59.50959 | -139.66636 | 42 ft | 6 kts | 341° |
| 2026-04-23 10:31 | 59.50988 | -139.66604 | 41 ft | 6 kts | 45° |
| 2026-04-23 10:31 | 59.50995 | -139.66590 | 41 ft | 0 kts | 45° |